Time;durP1;ratioP1;P1;durP2;ratioP2;P2;SDS_P1;SDS_P2;PMS_P1;PMS_P2;Temp;Humidity;BMP_temperature;BMP_pressure;BME280_temperature;BME280_humidity;BME280_pressure;Samples;Min_cycle;Max_cycle;Signal;HPM_P1;HPM_P2
2021/04/04 00:02:19;;;;;;;24.17;6.63;;;;;;;;;;5098716;28;20209;-53
2021/04/04 00:04:47;;;;;;;25.48;7.22;;;;;;;;;;5118081;28;20194;-53
2021/04/04 00:07:18;;;;;;;14.65;6.03;;;;;;;;;;5118237;28;20203;-54
2021/04/04 00:09:45;;;;;;;13.35;6.10;;;;;;;;;;5118543;28;20209;-54
2021/04/04 00:12:12;;;;;;;15.23;6.28;;;;;;;;;;5118515;28;20194;-52
2021/04/04 00:14:44;;;;;;;20.45;7.10;;;;;;;;;;5118821;28;20233;-49
2021/04/04 00:17:11;;;;;;;20.95;5.65;;;;;;;;;;5118428;28;20212;-52
2021/04/04 00:19:38;;;;;;;17.27;6.13;;;;;;;;;;5109514;28;20206;-48
2021/04/04 00:22:07;;;;;;;20.20;5.25;;;;;;;;;;5113131;28;20201;-55
2021/04/04 00:24:34;;;;;;;22.38;5.95;;;;;;;;;;5112247;28;20198;-49
2021/04/04 00:27:01;;;;;;;36.20;6.32;;;;;;;;;;5098384;28;20205;-47
2021/04/04 00:29:38;;;;;;;20.08;5.90;;;;;;;;;;5097953;28;20206;-57
2021/04/04 00:32:05;;;;;;;20.63;5.93;;;;;;;;;;5104116;28;20250;-50
2021/04/04 00:34:31;;;;;;;15.88;5.60;;;;;;;;;;5118602;28;20209;-55
2021/04/04 00:37:14;;;;;;;22.95;5.55;;;;;;;;;;5117810;28;20204;-56
2021/04/04 00:39:40;;;;;;;20.70;5.68;;;;;;;;;;5117929;28;20217;-53
2021/04/04 00:42:07;;;;;;;10.38;4.90;;;;;;;;;;5117829;28;20387;-52
2021/04/04 00:44:56;;;;;;;26.27;6.57;;;;;;;;;;5117927;28;20213;-56
2021/04/04 00:47:23;;;;;;;21.60;5.93;;;;;;;;;;5117737;28;20207;-53
2021/04/04 00:49:49;;;;;;;15.00;5.30;;;;;;;;;;5117943;28;20264;-54
2021/04/04 00:52:17;;;;;;;17.15;5.65;;;;;;;;;;5118234;28;20259;-55
2021/04/04 00:54:44;;;;;;;20.05;4.72;;;;;;;;;;5117928;28;20213;-53
2021/04/04 00:57:11;;;;;;;16.98;5.60;;;;;;;;;;5117808;28;20197;-57
2021/04/04 00:59:39;;;;;;;17.27;5.78;;;;;;;;;;5117498;28;20235;-51
2021/04/04 01:02:05;;;;;;;14.98;6.68;;;;;;;;;;5117840;28;20221;-55
2021/04/04 01:04:32;;;;;;;15.65;5.47;;;;;;;;;;5117557;28;20220;-51
2021/04/04 01:07:22;;;;;;;14.93;5.57;;;;;;;;;;5117608;28;20178;-53
2021/04/04 01:09:50;;;;;;;13.75;4.82;;;;;;;;;;5117380;28;20216;-54
2021/04/04 01:12:22;;;;;;;12.43;5.40;;;;;;;;;;5117799;28;20220;-51
2021/04/04 01:15:01;;;;;;;28.27;5.47;;;;;;;;;;5117856;28;20281;-53
2021/04/04 01:17:33;;;;;;;20.88;7.55;;;;;;;;;;5117091;28;20216;-55
2021/04/04 01:20:09;;;;;;;29.40;7.18;;;;;;;;;;5117224;28;20209;-53
2021/04/04 01:23:01;;;;;;;23.50;7.35;;;;;;;;;;5117160;28;20193;-53
2021/04/04 01:25:32;;;;;;;21.50;5.60;;;;;;;;;;5117109;28;20220;-51
2021/04/04 01:28:01;;;;;;;13.55;5.47;;;;;;;;;;5116538;28;20207;-48
2021/04/04 01:30:34;;;;;;;21.83;6.85;;;;;;;;;;5117024;28;20209;-54
2021/04/04 01:33:02;;;;;;;17.70;6.07;;;;;;;;;;5117032;28;20255;-54
2021/04/04 01:35:31;;;;;;;21.48;7.18;;;;;;;;;;5116487;28;20228;-54
2021/04/04 01:38:17;;;;;;;16.30;6.38;;;;;;;;;;5117490;28;20212;-54
2021/04/04 01:40:45;;;;;;;24.42;7.57;;;;;;;;;;5115145;28;20244;-49
2021/04/04 01:43:14;;;;;;;23.77;7.35;;;;;;;;;;5117057;28;20193;-51
2021/04/04 01:46:00;;;;;;;37.97;7.72;;;;;;;;;;5116786;28;20216;-53
2021/04/04 01:48:27;;;;;;;23.52;8.40;;;;;;;;;;5116083;28;20283;-47
2021/04/04 01:50:54;;;;;;;20.00;7.25;;;;;;;;;;5116641;28;20182;-50
2021/04/04 01:53:31;;;;;;;19.85;8.27;;;;;;;;;;5116524;28;20233;-56
2021/04/04 01:55:58;;;;;;;26.50;8.27;;;;;;;;;;5115782;28;20229;-51
2021/04/04 01:58:26;;;;;;;16.90;7.20;;;;;;;;;;5115945;28;20205;-54
2021/04/04 02:00:54;;;;;;;16.42;6.05;;;;;;;;;;5127658;28;20230;-49
2021/04/04 02:03:23;;;;;;;21.35;6.38;;;;;;;;;;5136656;28;20252;-52
2021/04/04 02:05:50;;;;;;;20.27;6.32;;;;;;;;;;5136823;28;20224;-54
2021/04/04 02:08:24;;;;;;;22.70;5.93;;;;;;;;;;5133997;28;20233;-52
2021/04/04 02:10:51;;;;;;;20.58;7.45;;;;;;;;;;5096130;28;20208;-56
2021/04/04 02:13:19;;;;;;;26.67;8.82;;;;;;;;;;5095907;28;20213;-50
2021/04/04 02:16:23;;;;;;;19.98;6.93;;;;;;;;;;5128409;28;20233;-54
2021/04/04 02:18:51;;;;;;;18.70;7.60;;;;;;;;;;5114753;28;20233;-49
2021/04/04 02:21:18;;;;;;;25.02;6.85;;;;;;;;;;5116891;28;20212;-50
2021/04/04 02:23:45;;;;;;;23.23;9.30;;;;;;;;;;5116426;28;20193;-45
2021/04/04 02:26:11;;;;;;;27.38;7.15;;;;;;;;;;5116272;28;20173;-54
2021/04/04 02:28:39;;;;;;;19.70;5.30;;;;;;;;;;5116198;28;20197;-51
2021/04/04 02:31:07;;;;;;;19.42;6.20;;;;;;;;;;5116170;28;20299;-57
2021/04/04 02:33:36;;;;;;;18.40;6.28;;;;;;;;;;5115585;28;20212;-54
2021/04/04 02:36:24;;;;;;;16.45;6.28;;;;;;;;;;5116139;28;20217;-56
2021/04/04 02:38:54;;;;;;;14.30;5.88;;;;;;;;;;5113682;28;20225;-54
2021/04/04 02:41:21;;;;;;;20.75;6.45;;;;;;;;;;5107491;28;20215;-52
2021/04/04 02:44:06;;;;;;;20.05;5.65;;;;;;;;;;5109515;28;20213;-56
2021/04/04 02:46:34;;;;;;;23.17;6.50;;;;;;;;;;5115969;28;20211;-53
2021/04/04 02:49:02;;;;;;;29.17;5.63;;;;;;;;;;5112052;28;20201;-55
2021/04/04 02:51:51;;;;;;;26.10;6.22;;;;;;;;;;5099714;28;20189;-53
2021/04/04 02:54:32;;;;;;;18.70;5.72;;;;;;;;;;5111832;28;20197;-57
2021/04/04 02:57:02;;;;;;;19.65;5.65;;;;;;;;;;5115977;28;20213;-53
2021/04/04 02:59:31;;;;;;;16.25;6.70;;;;;;;;;;5115686;28;20225;-49
2021/04/04 03:02:00;;;;;;;13.07;6.00;;;;;;;;;;5127681;28;20204;-50
2021/04/04 03:04:29;;;;;;;20.90;5.93;;;;;;;;;;5133153;28;20220;-49
2021/04/04 03:07:02;;;;;;;15.00;5.93;;;;;;;;;;5116195;28;20189;-55
2021/04/04 03:09:30;;;;;;;27.00;6.65;;;;;;;;;;5116129;28;20205;-54
2021/04/04 03:11:57;;;;;;;17.75;6.78;;;;;;;;;;5115870;28;20210;-52
2021/04/04 03:14:39;;;;;;;17.83;5.57;;;;;;;;;;5116101;28;20212;-48
2021/04/04 03:17:08;;;;;;;14.50;5.40;;;;;;;;;;5132768;28;20303;-52
2021/04/04 03:19:35;;;;;;;18.17;6.05;;;;;;;;;;5135934;28;20268;-55
2021/04/04 03:22:03;;;;;;;17.48;5.28;;;;;;;;;;5136342;28;20177;-56
2021/04/04 03:24:31;;;;;;;20.17;5.72;;;;;;;;;;5135979;28;20250;-54
2021/04/04 03:26:59;;;;;;;19.00;5.80;;;;;;;;;;5135839;28;20215;-51
2021/04/04 03:32:29;;;;;;;14.10;4.72;;;;;;;;;;5135779;28;20179;-55
2021/04/04 03:34:56;;;;;;;19.85;4.50;;;;;;;;;;5135786;28;20220;-54
2021/04/04 03:37:24;;;;;;;15.75;5.10;;;;;;;;;;5135726;28;20221;-51
2021/04/04 03:39:52;;;;;;;19.30;5.07;;;;;;;;;;5135689;28;20204;-53
2021/04/04 03:42:41;;;;;;;19.58;6.03;;;;;;;;;;5135373;28;20216;-52
2021/04/04 03:45:09;;;;;;;21.30;6.63;;;;;;;;;;5135514;28;20232;-51
2021/04/04 03:47:36;;;;;;;19.20;6.93;;;;;;;;;;5135902;28;20199;-52
2021/04/04 03:50:11;;;;;;;16.30;5.45;;;;;;;;;;5135622;28;20212;-49
2021/04/04 03:52:38;;;;;;;18.15;6.70;;;;;;;;;;5122384;28;20291;-54
2021/04/04 03:55:08;;;;;;;18.17;5.20;;;;;;;;;;5119219;28;20236;-50
2021/04/04 03:57:38;;;;;;;23.48;7.40;;;;;;;;;;5119327;28;20205;-49
2021/04/04 04:00:06;;;;;;;16.00;4.65;;;;;;;;;;5118931;28;20228;-56
2021/04/04 04:02:33;;;;;;;18.40;5.03;;;;;;;;;;5118550;28;20193;-53
2021/04/04 04:05:24;;;;;;;19.40;6.15;;;;;;;;;;5118859;28;20201;-51
2021/04/04 04:07:53;;;;;;;21.67;5.43;;;;;;;;;;5118443;28;20184;-52
2021/04/04 04:10:21;;;;;;;13.45;6.35;;;;;;;;;;5117711;28;20197;-54
2021/04/04 04:13:07;;;;;;;13.38;5.00;;;;;;;;;;5099376;28;20209;-56
2021/04/04 04:15:34;;;;;;;15.27;4.75;;;;;;;;;;5116525;28;20351;-58
2021/04/04 04:18:02;;;;;;;20.83;6.53;;;;;;;;;;5118627;28;20204;-54
2021/04/04 04:20:30;;;;;;;10.27;3.58;;;;;;;;;;5119479;28;20194;-54
2021/04/04 04:22:58;;;;;;;18.95;5.05;;;;;;;;;;5118748;28;20201;-56
2021/04/04 04:25:26;;;;;;;15.52;4.93;;;;;;;;;;5115892;28;20197;-56
2021/04/04 04:27:59;;;;;;;23.98;6.55;;;;;;;;;;5118740;28;20193;-49
2021/04/04 04:30:26;;;;;;;16.50;5.40;;;;;;;;;;5118359;28;20224;-51
2021/04/04 04:32:54;;;;;;;21.98;5.88;;;;;;;;;;5118669;28;20204;-54
2021/04/04 04:35:22;;;;;;;15.05;5.28;;;;;;;;;;5118463;28;20286;-52
2021/04/04 04:37:50;;;;;;;14.85;4.45;;;;;;;;;;5118660;28;20199;-51
2021/04/04 04:40:34;;;;;;;19.48;5.20;;;;;;;;;;5117676;28;20235;-51
2021/04/04 04:43:01;;;;;;;31.10;5.50;;;;;;;;;;5117891;28;20209;-56
2021/04/04 04:45:31;;;;;;;10.73;5.45;;;;;;;;;;5117961;28;20197;-57
2021/04/04 04:47:58;;;;;;;17.90;5.25;;;;;;;;;;5118255;28;20201;-53
2021/04/04 04:50:25;;;;;;;15.85;6.03;;;;;;;;;;5118298;28;20213;-49
2021/04/04 04:56:01;;;;;;;23.13;6.88;;;;;;;;;;5115880;28;20254;-54
2021/04/04 04:58:29;;;;;;;22.20;6.25;;;;;;;;;;5117696;28;20193;-54
2021/04/04 05:01:28;;;;;;;22.13;5.43;;;;;;;;;;5117966;28;20178;-56
2021/04/04 05:03:55;;;;;;;10.15;4.32;;;;;;;;;;5116843;28;20210;-52
2021/04/04 05:06:25;;;;;;;23.25;5.72;;;;;;;;;;5117488;28;20193;-59
2021/04/04 05:09:00;;;;;;;21.25;6.20;;;;;;;;;;5117838;28;20205;-57
2021/04/04 05:11:28;;;;;;;15.38;5.07;;;;;;;;;;5117680;28;20398;-49
2021/04/04 05:13:55;;;;;;;20.77;6.20;;;;;;;;;;5117840;28;20198;-51
2021/04/04 05:16:22;;;;;;;24.58;6.97;;;;;;;;;;5117630;28;20247;-50
2021/04/04 05:18:49;;;;;;;18.85;6.30;;;;;;;;;;5117494;28;20180;-54
2021/04/04 05:21:20;;;;;;;19.42;6.65;;;;;;;;;;5117309;28;20197;-58
2021/04/04 05:23:47;;;;;;;25.83;5.93;;;;;;;;;;5118008;28;20216;-54
2021/04/04 05:26:15;;;;;;;18.67;6.18;;;;;;;;;;5117575;28;20193;-48
2021/04/04 05:28:44;;;;;;;21.65;6.18;;;;;;;;;;5117096;28;20216;-55
2021/04/04 05:31:11;;;;;;;25.10;6.15;;;;;;;;;;5116939;28;20197;-56
2021/04/04 05:33:40;;;;;;;20.45;7.20;;;;;;;;;;5117756;28;20226;-56
2021/04/04 05:36:10;;;;;;;19.80;7.53;;;;;;;;;;5116914;28;20237;-54
2021/04/04 05:38:37;;;;;;;18.63;7.00;;;;;;;;;;5116208;28;20205;-52
2021/04/04 05:41:04;;;;;;;20.20;5.35;;;;;;;;;;5117059;28;20253;-55
2021/04/04 05:43:53;;;;;;;18.35;6.90;;;;;;;;;;5117384;28;20193;-51
2021/04/04 05:46:26;;;;;;;15.68;6.05;;;;;;;;;;5117380;28;20217;-54
2021/04/04 05:48:57;;;;;;;14.73;5.47;;;;;;;;;;5116755;28;20189;-50
2021/04/04 05:54:47;;;;;;;15.98;5.80;;;;;;;;;;5116987;28;20202;-55
2021/04/04 05:57:16;;;;;;;11.02;5.18;;;;;;;;;;5116438;28;20225;-50
2021/04/04 05:59:47;;;;;;;19.30;6.55;;;;;;;;;;5116472;28;20193;-53
2021/04/04 06:02:29;;;;;;;18.30;7.18;;;;;;;;;;5117280;28;20282;-55
2021/04/04 06:05:01;;;;;;;22.27;5.07;;;;;;;;;;5117120;28;20193;-52
2021/04/04 06:07:50;;;;;;;16.98;6.50;;;;;;;;;;5116641;28;20209;-55
2021/04/04 06:10:19;;;;;;;28.17;6.57;;;;;;;;;;5116986;28;20233;-55
2021/04/04 06:13:07;;;;;;;17.25;5.20;;;;;;;;;;5116694;28;20238;-54
2021/04/04 06:15:46;;;;;;;19.27;6.20;;;;;;;;;;5116284;28;20276;-53
2021/04/04 06:18:41;;;;;;;22.85;5.60;;;;;;;;;;5116479;28;20208;-52
2021/04/04 06:21:14;;;;;;;17.13;6.03;;;;;;;;;;5116688;28;20193;-52
2021/04/04 06:23:43;;;;;;;14.05;5.47;;;;;;;;;;5116300;28;20369;-51
2021/04/04 06:26:17;;;;;;;27.15;7.22;;;;;;;;;;5116501;28;20193;-51
2021/04/04 06:28:50;;;;;;;20.48;6.88;;;;;;;;;;5115916;28;20239;-53
2021/04/04 06:31:22;;;;;;;12.63;6.40;;;;;;;;;;5116333;28;20181;-49
2021/04/04 06:33:52;;;;;;;13.50;5.63;;;;;;;;;;5116314;28;20220;-52
2021/04/04 06:36:29;;;;;;;15.50;6.50;;;;;;;;;;5116069;28;20217;-49
2021/04/04 06:39:04;;;;;;;18.33;6.07;;;;;;;;;;5116639;28;20193;-55
2021/04/04 06:41:47;;;;;;;16.83;7.40;;;;;;;;;;5116352;28;20200;-53
2021/04/04 06:44:20;;;;;;;15.88;6.95;;;;;;;;;;5116317;28;20197;-48
2021/04/04 06:46:52;;;;;;;16.52;6.72;;;;;;;;;;5116210;28;20216;-56
2021/04/04 06:52:35;;;;;;;26.38;6.85;;;;;;;;;;5095426;28;20197;-51
2021/04/04 06:55:07;;;;;;;18.20;5.72;;;;;;;;;;5115396;28;20201;-56
2021/04/04 06:57:59;;;;;;;18.02;5.72;;;;;;;;;;5115480;28;20204;-56
2021/04/04 07:00:42;;;;;;;15.43;5.97;;;;;;;;;;5115368;28;20479;-55
2021/04/04 07:03:28;;;;;;;15.77;5.45;;;;;;;;;;5115597;28;20204;-54
2021/04/04 07:06:01;;;;;;;15.82;6.25;;;;;;;;;;5115202;28;20220;-56
2021/04/04 07:08:56;;;;;;;22.80;6.88;;;;;;;;;;5115573;28;20197;-54
2021/04/04 07:11:32;;;;;;;16.05;5.38;;;;;;;;;;5114780;28;20209;-52
2021/04/04 07:17:07;;;;;;;19.88;6.40;;;;;;;;;;5083265;28;20373;-56
2021/04/04 07:20:02;;;;;;;15.57;6.05;;;;;;;;;;5115130;28;20272;-57
2021/04/04 07:22:35;;;;;;;31.83;8.65;;;;;;;;;;5068571;28;20196;-55
2021/04/04 07:25:11;;;;;;;17.83;7.13;;;;;;;;;;5100774;28;20213;-53
2021/04/04 07:28:07;;;;;;;24.15;9.00;;;;;;;;;;5104976;28;20194;-55
2021/04/04 07:30:41;;;;;;;11.50;7.30;;;;;;;;;;5063139;28;20221;-56
2021/04/04 07:33:23;;;;;;;17.63;7.78;;;;;;;;;;5105154;28;20201;-53
2021/04/04 07:35:55;;;;;;;17.77;8.45;;;;;;;;;;5118411;28;20244;-50
2021/04/04 07:38:28;;;;;;;21.83;7.45;;;;;;;;;;5111591;28;20220;-53
2021/04/04 07:40:59;;;;;;;14.13;6.95;;;;;;;;;;5112912;28;20236;-48
2021/04/04 07:43:30;;;;;;;20.88;7.25;;;;;;;;;;5111374;28;20221;-56
2021/04/04 07:46:05;;;;;;;17.75;7.85;;;;;;;;;;5098703;28;20190;-55
2021/04/04 07:48:36;;;;;;;24.20;7.43;;;;;;;;;;5105970;28;20201;-51
2021/04/04 07:51:06;;;;;;;18.67;7.80;;;;;;;;;;5118882;28;20185;-56
2021/04/04 07:53:42;;;;;;;16.92;8.45;;;;;;;;;;5104670;28;20225;-54
2021/04/04 07:56:14;;;;;;;19.23;7.53;;;;;;;;;;5117972;28;20289;-55
2021/04/04 07:58:43;;;;;;;21.08;8.15;;;;;;;;;;5101173;28;20213;-56
2021/04/04 08:01:42;;;;;;;15.90;8.00;;;;;;;;;;5097673;28;20178;-47
2021/04/04 08:04:13;;;;;;;19.48;8.40;;;;;;;;;;5097446;28;20206;-52
2021/04/04 08:06:49;;;;;;;23.75;8.48;;;;;;;;;;5097719;28;20205;-58
2021/04/04 08:09:26;;;;;;;29.13;9.50;;;;;;;;;;5097181;28;20221;-56
2021/04/04 08:11:55;;;;;;;28.70;10.00;;;;;;;;;;5093535;28;20208;-54
2021/04/04 08:14:27;;;;;;;24.40;10.75;;;;;;;;;;5097214;28;20232;-51
2021/04/04 08:16:57;;;;;;;29.95;12.43;;;;;;;;;;5098063;28;20253;-53
2021/04/04 08:19:36;;;;;;;28.05;12.90;;;;;;;;;;5097571;28;20224;-50
2021/04/04 08:22:09;;;;;;;29.55;11.10;;;;;;;;;;5097117;28;20197;-54
2021/04/04 08:24:38;;;;;;;34.95;13.40;;;;;;;;;;5097563;28;20205;-53
2021/04/04 08:27:36;;;;;;;30.35;14.18;;;;;;;;;;5097950;28;20473;-50
2021/04/04 08:30:12;;;;;;;33.33;17.15;;;;;;;;;;5095180;28;20377;-54
2021/04/04 08:32:48;;;;;;;32.95;18.10;;;;;;;;;;5097401;28;20209;-55
2021/04/04 08:35:19;;;;;;;37.33;20.20;;;;;;;;;;5097292;28;20196;-51
2021/04/04 08:37:47;;;;;;;28.05;16.30;;;;;;;;;;5097829;28;20209;-55
2021/04/04 08:40:44;;;;;;;33.85;15.77;;;;;;;;;;5097971;28;20232;-55
2021/04/04 08:43:13;;;;;;;32.28;13.80;;;;;;;;;;5097216;28;20194;-56
2021/04/04 08:45:44;;;;;;;33.78;14.82;;;;;;;;;;5097515;28;20190;-52
2021/04/04 08:48:41;;;;;;;25.15;15.05;;;;;;;;;;5097256;28;20197;-54
2021/04/04 08:51:12;;;;;;;44.97;16.20;;;;;;;;;;5096625;28;20209;-50
2021/04/04 08:53:41;;;;;;;25.88;13.35;;;;;;;;;;5096637;28;20212;-50
2021/04/04 08:56:11;;;;;;;30.15;16.63;;;;;;;;;;5092094;28;20261;-55
2021/04/04 08:58:39;;;;;;;39.10;17.20;;;;;;;;;;5117150;28;20273;-55
2021/04/04 09:01:16;;;;;;;33.25;18.55;;;;;;;;;;5117639;28;20249;-52
2021/04/04 09:03:49;;;;;;;43.65;21.65;;;;;;;;;;5117159;28;20189;-50
2021/04/04 09:06:17;;;;;;;41.10;21.10;;;;;;;;;;5116845;28;20277;-50
2021/04/04 09:09:00;;;;;;;34.88;19.80;;;;;;;;;;5116804;28;20209;-54
2021/04/04 09:11:27;;;;;;;24.60;14.05;;;;;;;;;;5117429;28;20316;-49
2021/04/04 09:13:58;;;;;;;28.67;14.35;;;;;;;;;;5116691;28;20197;-56
2021/04/04 09:16:28;;;;;;;27.55;14.20;;;;;;;;;;5116788;28;20229;-53
2021/04/04 09:18:54;;;;;;;32.17;17.67;;;;;;;;;;5116777;28;20205;-56
2021/04/04 09:21:23;;;;;;;30.38;17.60;;;;;;;;;;5116425;28;20224;-52
2021/04/04 09:24:03;;;;;;;30.88;16.50;;;;;;;;;;5096691;28;20186;-48
2021/04/04 09:26:30;;;;;;;34.72;17.05;;;;;;;;;;5096350;28;20213;-47
2021/04/04 09:28:57;;;;;;;29.65;16.90;;;;;;;;;;5115639;28;20256;-56
2021/04/04 09:31:27;;;;;;;31.23;17.52;;;;;;;;;;5116394;28;20205;-46
2021/04/04 09:34:02;;;;;;;36.00;17.05;;;;;;;;;;5122607;28;20272;-56
2021/04/04 09:36:43;;;;;;;34.42;18.15;;;;;;;;;;5110963;28;20263;-49
2021/04/04 09:39:10;;;;;;;34.50;18.60;;;;;;;;;;5110049;28;20220;-50
2021/04/04 09:41:37;;;;;;;30.50;16.40;;;;;;;;;;5115982;28;20269;-53
2021/04/04 09:44:11;;;;;;;34.30;17.63;;;;;;;;;;5101337;28;20206;-45
2021/04/04 09:46:50;;;;;;;32.45;16.80;;;;;;;;;;5113951;28;20236;-52
2021/04/04 09:49:32;;;;;;;28.73;15.27;;;;;;;;;;5100079;28;20221;-49
2021/04/04 09:55:05;;;;;;;41.50;22.90;;;;;;;;;;5112456;28;20208;-54
2021/04/04 09:57:38;;;;;;;49.30;23.90;;;;;;;;;;5115089;28;20205;-57
2021/04/04 10:00:25;;;;;;;38.20;24.45;;;;;;;;;;5115863;28;20184;-56
2021/04/04 10:02:52;;;;;;;37.95;19.75;;;;;;;;;;5113948;28;20220;-60
2021/04/04 10:05:32;;;;;;;40.38;23.92;;;;;;;;;;5113349;28;20202;-54
2021/04/04 10:08:10;;;;;;;40.25;22.55;;;;;;;;;;5115609;28;20189;-58
2021/04/04 10:10:38;;;;;;;46.58;22.45;;;;;;;;;;5095425;28;20209;-56
2021/04/04 10:13:05;;;;;;;44.13;24.65;;;;;;;;;;5115996;28;20185;-58
2021/04/04 10:15:42;;;;;;;54.30;25.17;;;;;;;;;;5114882;28;20217;-58
2021/04/04 10:18:11;;;;;;;42.38;23.10;;;;;;;;;;5114705;28;20181;-56
2021/04/04 10:20:40;;;;;;;37.72;22.50;;;;;;;;;;5115209;28;20273;-53
2021/04/04 10:23:08;;;;;;;41.55;24.70;;;;;;;;;;5115036;28;20213;-55
2021/04/04 10:26:06;;;;;;;39.92;21.08;;;;;;;;;;5124786;28;20342;-56
2021/04/04 10:28:44;;;;;;;40.78;21.05;;;;;;;;;;5103304;28;20233;-53
2021/04/04 10:31:11;;;;;;;31.38;19.38;;;;;;;;;;5114398;28;20201;-58
2021/04/04 10:34:02;;;;;;;41.30;22.38;;;;;;;;;;5114889;28;20209;-57
2021/04/04 10:36:30;;;;;;;30.73;19.75;;;;;;;;;;5115008;28;20237;-56
2021/04/04 10:39:07;;;;;;;37.92;20.30;;;;;;;;;;5115392;28;20200;-49
2021/04/04 10:41:44;;;;;;;32.28;18.23;;;;;;;;;;5104633;28;20189;-53
2021/04/04 10:44:23;;;;;;;32.53;19.70;;;;;;;;;;5115000;28;20203;-55
2021/04/04 10:46:58;;;;;;;34.72;18.58;;;;;;;;;;5095294;28;20217;-56
2021/04/04 10:49:27;;;;;;;30.80;17.08;;;;;;;;;;5108442;28;20269;-50
2021/04/04 10:51:56;;;;;;;31.13;18.60;;;;;;;;;;5116180;28;20189;-55
2021/04/04 10:57:27;;;;;;;28.85;13.93;;;;;;;;;;5115663;28;20232;-56
2021/04/04 10:59:56;;;;;;;24.95;15.30;;;;;;;;;;5115555;28;20193;-55
2021/04/04 11:02:24;;;;;;;25.90;14.43;;;;;;;;;;5117328;28;20221;-57
2021/04/04 11:04:51;;;;;;;20.63;12.30;;;;;;;;;;5113734;28;20304;-59
2021/04/04 11:07:19;;;;;;;20.58;11.20;;;;;;;;;;5120292;28;20193;-55
2021/04/04 11:09:46;;;;;;;25.70;14.15;;;;;;;;;;5119541;28;20205;-57
2021/04/04 11:12:13;;;;;;;19.15;12.25;;;;;;;;;;5118391;28;20198;-54
2021/04/04 11:14:42;;;;;;;22.45;12.38;;;;;;;;;;5124372;28;20211;-55
2021/04/04 11:17:12;;;;;;;20.10;12.30;;;;;;;;;;5127135;28;20232;-54
2021/04/04 11:19:43;;;;;;;18.60;12.50;;;;;;;;;;5118043;28;20313;-56
2021/04/04 11:22:47;;;;;;;23.88;12.02;;;;;;;;;;5118925;28;20502;-54
2021/04/04 11:25:16;;;;;;;23.40;11.57;;;;;;;;;;5117026;28;20296;-51
2021/04/04 11:27:47;;;;;;;20.80;9.75;;;;;;;;;;5118737;28;20209;-55
2021/04/04 11:30:41;;;;;;;21.20;8.30;;;;;;;;;;5118336;28;20278;-55
2021/04/04 11:33:23;;;;;;;16.52;8.48;;;;;;;;;;5111339;28;20257;-58
2021/04/04 11:36:08;;;;;;;23.60;10.63;;;;;;;;;;5118207;28;20225;-55
2021/04/04 11:38:36;;;;;;;23.52;10.30;;;;;;;;;;5118614;28;20216;-53
2021/04/04 11:41:18;;;;;;;23.27;11.70;;;;;;;;;;5118460;28;20219;-53
2021/04/04 11:43:46;;;;;;;20.02;10.63;;;;;;;;;;5118733;28;20208;-56
2021/04/04 11:46:32;;;;;;;18.25;9.75;;;;;;;;;;5118145;28;20193;-51
2021/04/04 11:49:01;;;;;;;19.45;8.80;;;;;;;;;;5118439;28;20201;-53
2021/04/04 11:51:32;;;;;;;20.85;9.15;;;;;;;;;;5118906;28;20205;-55
2021/04/04 11:54:00;;;;;;;22.30;9.55;;;;;;;;;;5117801;28;20197;-54
2021/04/04 11:56:48;;;;;;;12.38;7.70;;;;;;;;;;5117991;28;20237;-54
2021/04/04 11:59:18;;;;;;;18.73;8.20;;;;;;;;;;5118312;28;20197;-58
2021/04/04 12:01:47;;;;;;;15.27;8.35;;;;;;;;;;5118280;28;20193;-51
2021/04/04 12:04:31;;;;;;;15.30;8.27;;;;;;;;;;5117841;28;20189;-51
2021/04/04 12:07:05;;;;;;;15.90;10.10;;;;;;;;;;5115890;28;20236;-51
2021/04/04 12:09:32;;;;;;;17.80;8.93;;;;;;;;;;5117533;28;20452;-50
2021/04/04 12:12:02;;;;;;;17.63;8.47;;;;;;;;;;5117360;28;20209;-50
2021/04/04 12:14:29;;;;;;;14.48;7.18;;;;;;;;;;5117689;28;20447;-51
2021/04/04 12:16:56;;;;;;;16.38;7.88;;;;;;;;;;5117854;28;20233;-53
2021/04/04 12:19:33;;;;;;;19.10;7.07;;;;;;;;;;5117219;28;20205;-55
2021/04/04 12:22:00;;;;;;;11.93;7.60;;;;;;;;;;5116953;28;20455;-54
2021/04/04 12:24:40;;;;;;;17.23;7.17;;;;;;;;;;5117383;28;20447;-52
2021/04/04 12:27:10;;;;;;;14.83;8.43;;;;;;;;;;5117257;28;20451;-57
2021/04/04 12:29:44;;;;;;;10.40;6.60;;;;;;;;;;5117046;28;20454;-50
2021/04/04 12:32:38;;;;;;;13.70;6.77;;;;;;;;;;5117302;28;20494;-57
2021/04/04 12:35:07;;;;;;;12.43;7.20;;;;;;;;;;5109005;28;20623;-52
2021/04/04 12:37:40;;;;;;;20.13;5.87;;;;;;;;;;5111434;28;20657;-54
2021/04/04 12:40:26;;;;;;;14.57;7.07;;;;;;;;;;5116693;28;20420;-58
2021/04/04 12:42:58;;;;;;;11.10;5.40;;;;;;;;;;5114077;28;20487;-52
2021/04/04 12:45:26;;;;;;;11.23;7.07;;;;;;;;;;5117802;28;20508;-59
2021/04/04 12:48:11;;;;;;;10.20;5.20;;;;;;;;;;5116354;28;20454;-55
2021/04/04 12:50:39;;;;;;;10.37;5.80;;;;;;;;;;5116858;28;20512;-57
2021/04/04 12:53:09;;;;;;;18.57;5.53;;;;;;;;;;5116436;28;20658;-54
2021/04/04 12:55:43;;;;;;;12.43;5.60;;;;;;;;;;5101360;28;20448;-49
2021/04/04 12:58:11;;;;;;;10.47;5.30;;;;;;;;;;5102342;28;20504;-58
2021/04/04 13:00:39;;;;;;;10.63;4.97;;;;;;;;;;5100005;28;20443;-60
2021/04/04 13:03:06;;;;;;;12.10;6.80;;;;;;;;;;5116532;28;20471;-58
2021/04/04 13:05:36;;;;;;;10.20;5.50;;;;;;;;;;5110399;28;20437;-57
2021/04/04 13:08:18;;;;;;;13.23;6.20;;;;;;;;;;5118236;28;20463;-58
2021/04/04 13:10:47;;;;;;;9.93;5.80;;;;;;;;;;5116848;28;20451;-54
2021/04/04 13:13:15;;;;;;;8.80;6.37;;;;;;;;;;5116448;28;20455;-53
2021/04/04 13:16:01;;;;;;;9.00;5.70;;;;;;;;;;5117160;28;20637;-54
2021/04/04 13:18:29;;;;;;;10.83;5.50;;;;;;;;;;5116605;28;20459;-59
2021/04/04 13:21:10;;;;;;;11.03;4.83;;;;;;;;;;5100475;28;20447;-57
2021/04/04 13:23:51;;;;;;;11.40;5.90;;;;;;;;;;5105496;28;20446;-59
2021/04/04 13:26:18;;;;;;;11.57;5.20;;;;;;;;;;5115276;28;20442;-53
2021/04/04 13:29:07;;;;;;;9.57;5.20;;;;;;;;;;5116105;28;20479;-56
2021/04/04 13:31:34;;;;;;;9.90;5.70;;;;;;;;;;5116280;28;20519;-57
2021/04/04 13:34:05;;;;;;;13.30;7.40;;;;;;;;;;5116269;28;20458;-51
2021/04/04 13:36:38;;;;;;;19.03;9.97;;;;;;;;;;5094727;28;20479;-53
2021/04/04 13:39:08;;;;;;;7.33;4.90;;;;;;;;;;5094855;28;20507;-54
2021/04/04 13:41:43;;;;;;;11.80;5.33;;;;;;;;;;5096056;28;20444;-53
2021/04/04 13:44:28;;;;;;;13.10;7.30;;;;;;;;;;5108399;28;20490;-55
2021/04/04 13:46:55;;;;;;;180.27;101.50;;;;;;;;;;5115262;28;20485;-57
2021/04/04 13:49:23;;;;;;;32.90;19.17;;;;;;;;;;5115021;28;20456;-51
2021/04/04 13:52:09;;;;;;;17.87;9.40;;;;;;;;;;5115662;28;20549;-56
2021/04/04 13:55:06;;;;;;;13.80;5.40;;;;;;;;;;5115125;28;20554;-50
2021/04/04 13:57:36;;;;;;;9.40;4.87;;;;;;;;;;5116473;28;20521;-47
2021/04/04 14:00:07;;;;;;;7.40;5.13;;;;;;;;;;5113929;28;20455;-51
2021/04/04 14:02:47;;;;;;;11.60;5.33;;;;;;;;;;5114526;28;20436;-57
2021/04/04 14:05:25;;;;;;;8.37;5.70;;;;;;;;;;5114868;28;20463;-57
2021/04/04 14:07:52;;;;;;;11.13;6.40;;;;;;;;;;5114871;28;20526;-49
2021/04/04 14:10:53;;;;;;;8.90;5.50;;;;;;;;;;5114660;28;20455;-52
2021/04/04 14:13:24;;;;;;;18.67;6.73;;;;;;;;;;5114872;28;20568;-59
2021/04/04 14:15:51;;;;;;;13.63;6.40;;;;;;;;;;5114606;28;20475;-51
2021/04/04 14:18:33;;;;;;;14.57;5.40;;;;;;;;;;5114367;28;20458;-56
2021/04/04 14:21:01;;;;;;;9.23;4.80;;;;;;;;;;5101556;28;20463;-50
2021/04/04 14:23:31;;;;;;;10.73;5.90;;;;;;;;;;5114917;28;20439;-56
2021/04/04 14:26:32;;;;;;;12.30;6.40;;;;;;;;;;5114251;28;20467;-55
2021/04/04 14:28:59;;;;;;;11.83;7.50;;;;;;;;;;5114644;28;20447;-55
2021/04/04 14:31:26;;;;;;;14.83;5.80;;;;;;;;;;5114372;28;20446;-57
2021/04/04 14:33:55;;;;;;;13.07;6.87;;;;;;;;;;5113953;28;20455;-55
2021/04/04 14:36:25;;;;;;;12.13;6.00;;;;;;;;;;5114128;28;20519;-58
2021/04/04 14:41:55;;;;;;;8.80;6.20;;;;;;;;;;5108530;28;20421;-54
2021/04/04 14:44:28;;;;;;;8.63;5.13;;;;;;;;;;5113195;28;20471;-54
2021/04/04 14:47:05;;;;;;;9.50;6.40;;;;;;;;;;5093779;28;20436;-57
2021/04/04 14:49:32;;;;;;;8.00;5.33;;;;;;;;;;5094272;28;20456;-54
2021/04/04 14:51:59;;;;;;;11.93;6.00;;;;;;;;;;5093698;28;20440;-57
2021/04/04 14:54:26;;;;;;;11.03;5.67;;;;;;;;;;5094833;28;20459;-52
2021/04/04 14:56:55;;;;;;;13.47;6.73;;;;;;;;;;5094470;28;20484;-55
2021/04/04 14:59:22;;;;;;;14.63;7.60;;;;;;;;;;5099660;28;20578;-56
2021/04/04 15:01:58;;;;;;;13.20;5.50;;;;;;;;;;5114562;28;20446;-50
2021/04/04 15:04:51;;;;;;;13.77;6.63;;;;;;;;;;5114639;28;20458;-51
2021/04/04 15:07:26;;;;;;;10.60;5.90;;;;;;;;;;5115656;28;20455;-55
2021/04/04 15:09:54;;;;;;;10.50;5.53;;;;;;;;;;5119841;28;20453;-55
2021/04/04 15:12:21;;;;;;;10.67;7.17;;;;;;;;;;5134324;28;20451;-52
2021/04/04 15:15:02;;;;;;;11.30;6.50;;;;;;;;;;5134899;28;20437;-53
2021/04/04 15:17:31;;;;;;;15.70;9.47;;;;;;;;;;5117085;28;20490;-52
2021/04/04 15:19:57;;;;;;;18.43;7.43;;;;;;;;;;5114675;28;20439;-58
2021/04/04 15:22:30;;;;;;;12.00;7.30;;;;;;;;;;5113727;28;20443;-57
2021/04/04 15:24:57;;;;;;;14.77;7.47;;;;;;;;;;5113706;28;20446;-55
2021/04/04 15:27:24;;;;;;;29.53;12.07;;;;;;;;;;5114096;28;20447;-49
2021/04/04 15:30:27;;;;;;;14.53;7.93;;;;;;;;;;5114036;28;20507;-57